sensor_id;sensor_type;location;lat;lon;timestamp;P1;durP1;ratioP1;P2;durP2;ratioP2
4359;SDS011;2193;47.980;7.660;2023-05-07T00:01:05;6.80;;;4.93;;
4359;SDS011;2193;47.980;7.660;2023-05-07T00:03:31;7.33;;;4.50;;
4359;SDS011;2193;47.980;7.660;2023-05-07T00:05:58;7.13;;;4.10;;
4359;SDS011;2193;47.980;7.660;2023-05-07T00:08:23;9.10;;;4.80;;
4359;SDS011;2193;47.980;7.660;2023-05-07T00:10:48;4.60;;;3.90;;
4359;SDS011;2193;47.980;7.660;2023-05-07T00:13:14;5.43;;;4.40;;
4359;SDS011;2193;47.980;7.660;2023-05-07T00:15:39;5.30;;;4.10;;
4359;SDS011;2193;47.980;7.660;2023-05-07T00:18:04;6.00;;;4.03;;
4359;SDS011;2193;47.980;7.660;2023-05-07T00:20:29;6.20;;;4.00;;
4359;SDS011;2193;47.980;7.660;2023-05-07T00:22:55;6.00;;;4.53;;
4359;SDS011;2193;47.980;7.660;2023-05-07T00:25:20;6.40;;;4.47;;
4359;SDS011;2193;47.980;7.660;2023-05-07T00:27:45;5.73;;;4.80;;
4359;SDS011;2193;47.980;7.660;2023-05-07T00:30:11;7.83;;;5.20;;
4359;SDS011;2193;47.980;7.660;2023-05-07T00:32:36;12.23;;;5.30;;
4359;SDS011;2193;47.980;7.660;2023-05-07T00:35:02;8.10;;;4.63;;
4359;SDS011;2193;47.980;7.660;2023-05-07T00:37:27;6.07;;;5.47;;
4359;SDS011;2193;47.980;7.660;2023-05-07T00:39:52;7.97;;;5.50;;
4359;SDS011;2193;47.980;7.660;2023-05-07T00:42:17;7.53;;;4.73;;
4359;SDS011;2193;47.980;7.660;2023-05-07T00:44:43;7.43;;;4.43;;
4359;SDS011;2193;47.980;7.660;2023-05-07T00:47:08;6.87;;;5.30;;
4359;SDS011;2193;47.980;7.660;2023-05-07T00:49:43;8.10;;;5.30;;
4359;SDS011;2193;47.980;7.660;2023-05-07T00:52:13;12.10;;;6.10;;
4359;SDS011;2193;47.980;7.660;2023-05-07T00:54:38;7.37;;;5.80;;
4359;SDS011;2193;47.980;7.660;2023-05-07T00:57:05;7.23;;;5.83;;
4359;SDS011;2193;47.980;7.660;2023-05-07T00:59:31;6.30;;;5.30;;
4359;SDS011;2193;47.980;7.660;2023-05-07T01:01:56;6.07;;;5.17;;
4359;SDS011;2193;47.980;7.660;2023-05-07T01:04:22;14.20;;;5.40;;
4359;SDS011;2193;47.980;7.660;2023-05-07T01:06:47;7.47;;;5.17;;
4359;SDS011;2193;47.980;7.660;2023-05-07T01:09:12;7.90;;;5.17;;
4359;SDS011;2193;47.980;7.660;2023-05-07T01:11:38;7.00;;;5.03;;
4359;SDS011;2193;47.980;7.660;2023-05-07T01:14:04;6.30;;;4.83;;
4359;SDS011;2193;47.980;7.660;2023-05-07T01:16:29;8.03;;;4.57;;
4359;SDS011;2193;47.980;7.660;2023-05-07T01:18:54;7.63;;;5.50;;
4359;SDS011;2193;47.980;7.660;2023-05-07T01:21:19;7.40;;;5.80;;
4359;SDS011;2193;47.980;7.660;2023-05-07T01:23:47;7.57;;;5.93;;
4359;SDS011;2193;47.980;7.660;2023-05-07T01:26:12;8.17;;;6.07;;
4359;SDS011;2193;47.980;7.660;2023-05-07T01:28:37;9.47;;;6.30;;
4359;SDS011;2193;47.980;7.660;2023-05-07T01:31:03;13.50;;;6.70;;
4359;SDS011;2193;47.980;7.660;2023-05-07T01:33:29;7.13;;;5.90;;
4359;SDS011;2193;47.980;7.660;2023-05-07T01:35:56;9.87;;;6.07;;
4359;SDS011;2193;47.980;7.660;2023-05-07T01:38:23;9.20;;;5.90;;
4359;SDS011;2193;47.980;7.660;2023-05-07T01:40:48;6.90;;;5.70;;
4359;SDS011;2193;47.980;7.660;2023-05-07T01:43:13;7.60;;;6.07;;
4359;SDS011;2193;47.980;7.660;2023-05-07T01:45:39;12.07;;;6.30;;
4359;SDS011;2193;47.980;7.660;2023-05-07T01:48:05;7.70;;;5.90;;
4359;SDS011;2193;47.980;7.660;2023-05-07T01:50:30;7.60;;;6.03;;
4359;SDS011;2193;47.980;7.660;2023-05-07T01:52:56;7.20;;;5.77;;
4359;SDS011;2193;47.980;7.660;2023-05-07T01:55:22;8.17;;;5.60;;
4359;SDS011;2193;47.980;7.660;2023-05-07T01:57:47;8.10;;;5.50;;
4359;SDS011;2193;47.980;7.660;2023-05-07T02:00:12;10.93;;;5.60;;
4359;SDS011;2193;47.980;7.660;2023-05-07T02:02:38;7.67;;;6.07;;
4359;SDS011;2193;47.980;7.660;2023-05-07T02:05:03;8.70;;;5.47;;
4359;SDS011;2193;47.980;7.660;2023-05-07T02:07:29;7.30;;;4.87;;
4359;SDS011;2193;47.980;7.660;2023-05-07T02:09:54;8.17;;;5.40;;
4359;SDS011;2193;47.980;7.660;2023-05-07T02:12:20;10.30;;;5.73;;
4359;SDS011;2193;47.980;7.660;2023-05-07T02:14:45;6.60;;;5.10;;
4359;SDS011;2193;47.980;7.660;2023-05-07T02:17:11;8.13;;;5.50;;
4359;SDS011;2193;47.980;7.660;2023-05-07T02:19:36;6.63;;;5.20;;
4359;SDS011;2193;47.980;7.660;2023-05-07T02:22:01;5.23;;;4.73;;
4359;SDS011;2193;47.980;7.660;2023-05-07T02:24:26;5.20;;;4.67;;
4359;SDS011;2193;47.980;7.660;2023-05-07T02:26:51;6.97;;;5.30;;
4359;SDS011;2193;47.980;7.660;2023-05-07T02:29:17;11.23;;;5.03;;
4359;SDS011;2193;47.980;7.660;2023-05-07T02:31:42;6.77;;;5.03;;
4359;SDS011;2193;47.980;7.660;2023-05-07T02:34:07;6.80;;;4.77;;
4359;SDS011;2193;47.980;7.660;2023-05-07T02:36:32;9.10;;;5.07;;
4359;SDS011;2193;47.980;7.660;2023-05-07T02:38:57;6.13;;;5.50;;
4359;SDS011;2193;47.980;7.660;2023-05-07T02:41:23;9.40;;;5.20;;
4359;SDS011;2193;47.980;7.660;2023-05-07T02:43:48;6.70;;;5.27;;
4359;SDS011;2193;47.980;7.660;2023-05-07T02:46:13;6.20;;;4.67;;
4359;SDS011;2193;47.980;7.660;2023-05-07T02:48:38;6.70;;;5.10;;
4359;SDS011;2193;47.980;7.660;2023-05-07T02:51:04;5.00;;;4.50;;
4359;SDS011;2193;47.980;7.660;2023-05-07T02:53:30;7.93;;;4.97;;
4359;SDS011;2193;47.980;7.660;2023-05-07T02:55:59;9.73;;;4.30;;
4359;SDS011;2193;47.980;7.660;2023-05-07T02:58:24;10.60;;;6.10;;
4359;SDS011;2193;47.980;7.660;2023-05-07T03:00:50;6.40;;;5.50;;
4359;SDS011;2193;47.980;7.660;2023-05-07T03:03:15;7.93;;;5.70;;
4359;SDS011;2193;47.980;7.660;2023-05-07T03:05:40;8.20;;;5.10;;
4359;SDS011;2193;47.980;7.660;2023-05-07T03:08:06;6.80;;;5.13;;
4359;SDS011;2193;47.980;7.660;2023-05-07T03:10:31;12.30;;;5.57;;
4359;SDS011;2193;47.980;7.660;2023-05-07T03:12:56;8.00;;;5.67;;
4359;SDS011;2193;47.980;7.660;2023-05-07T03:15:22;5.80;;;5.20;;
4359;SDS011;2193;47.980;7.660;2023-05-07T03:17:50;6.20;;;5.17;;
4359;SDS011;2193;47.980;7.660;2023-05-07T03:20:15;8.97;;;5.30;;
4359;SDS011;2193;47.980;7.660;2023-05-07T03:22:40;6.33;;;4.80;;
4359;SDS011;2193;47.980;7.660;2023-05-07T03:25:06;7.33;;;4.83;;
4359;SDS011;2193;47.980;7.660;2023-05-07T03:27:31;5.70;;;4.63;;
4359;SDS011;2193;47.980;7.660;2023-05-07T03:29:57;7.80;;;5.23;;
4359;SDS011;2193;47.980;7.660;2023-05-07T03:32:22;10.33;;;5.23;;
4359;SDS011;2193;47.980;7.660;2023-05-07T03:34:47;7.33;;;5.00;;
4359;SDS011;2193;47.980;7.660;2023-05-07T03:37:12;6.20;;;5.20;;
4359;SDS011;2193;47.980;7.660;2023-05-07T03:39:37;8.00;;;4.90;;
4359;SDS011;2193;47.980;7.660;2023-05-07T03:42:02;7.47;;;5.37;;
4359;SDS011;2193;47.980;7.660;2023-05-07T03:44:28;7.20;;;5.07;;
4359;SDS011;2193;47.980;7.660;2023-05-07T03:46:53;6.87;;;4.60;;
4359;SDS011;2193;47.980;7.660;2023-05-07T03:49:18;7.77;;;4.90;;
4359;SDS011;2193;47.980;7.660;2023-05-07T03:51:44;5.50;;;4.80;;
4359;SDS011;2193;47.980;7.660;2023-05-07T03:54:09;10.30;;;4.90;;
4359;SDS011;2193;47.980;7.660;2023-05-07T03:56:34;6.70;;;5.77;;
4359;SDS011;2193;47.980;7.660;2023-05-07T03:59:00;8.03;;;5.57;;
4359;SDS011;2193;47.980;7.660;2023-05-07T04:01:25;11.20;;;5.47;;
4359;SDS011;2193;47.980;7.660;2023-05-07T04:03:50;12.37;;;7.60;;
4359;SDS011;2193;47.980;7.660;2023-05-07T04:06:16;7.93;;;5.80;;
4359;SDS011;2193;47.980;7.660;2023-05-07T04:08:42;5.70;;;5.10;;
4359;SDS011;2193;47.980;7.660;2023-05-07T04:11:07;10.00;;;5.27;;
4359;SDS011;2193;47.980;7.660;2023-05-07T04:13:32;5.67;;;5.07;;
4359;SDS011;2193;47.980;7.660;2023-05-07T04:15:58;8.57;;;5.63;;
4359;SDS011;2193;47.980;7.660;2023-05-07T04:18:23;7.60;;;5.27;;
4359;SDS011;2193;47.980;7.660;2023-05-07T04:20:48;7.63;;;5.80;;
4359;SDS011;2193;47.980;7.660;2023-05-07T04:23:16;8.50;;;6.00;;
4359;SDS011;2193;47.980;7.660;2023-05-07T04:25:42;11.83;;;6.40;;
4359;SDS011;2193;47.980;7.660;2023-05-07T04:28:07;7.30;;;4.97;;
4359;SDS011;2193;47.980;7.660;2023-05-07T04:30:32;10.20;;;6.20;;
4359;SDS011;2193;47.980;7.660;2023-05-07T04:32:57;7.10;;;5.63;;
4359;SDS011;2193;47.980;7.660;2023-05-07T04:35:23;8.13;;;5.47;;
4359;SDS011;2193;47.980;7.660;2023-05-07T04:37:48;8.97;;;5.80;;
4359;SDS011;2193;47.980;7.660;2023-05-07T04:40:13;7.97;;;5.43;;
4359;SDS011;2193;47.980;7.660;2023-05-07T04:42:38;6.63;;;5.50;;
4359;SDS011;2193;47.980;7.660;2023-05-07T04:45:03;7.60;;;5.60;;
4359;SDS011;2193;47.980;7.660;2023-05-07T04:47:29;6.53;;;5.83;;
4359;SDS011;2193;47.980;7.660;2023-05-07T04:49:55;7.50;;;5.17;;
4359;SDS011;2193;47.980;7.660;2023-05-07T04:52:20;8.70;;;6.10;;
4359;SDS011;2193;47.980;7.660;2023-05-07T04:54:45;7.00;;;5.97;;
4359;SDS011;2193;47.980;7.660;2023-05-07T04:57:10;11.73;;;6.40;;
4359;SDS011;2193;47.980;7.660;2023-05-07T04:59:35;11.27;;;6.80;;
4359;SDS011;2193;47.980;7.660;2023-05-07T05:02:01;6.57;;;5.97;;
4359;SDS011;2193;47.980;7.660;2023-05-07T05:04:26;9.53;;;6.60;;
4359;SDS011;2193;47.980;7.660;2023-05-07T05:06:51;9.33;;;6.43;;
4359;SDS011;2193;47.980;7.660;2023-05-07T05:09:16;7.40;;;6.37;;
4359;SDS011;2193;47.980;7.660;2023-05-07T05:11:42;7.53;;;6.70;;
4359;SDS011;2193;47.980;7.660;2023-05-07T05:14:07;9.00;;;6.90;;
4359;SDS011;2193;47.980;7.660;2023-05-07T05:16:32;8.00;;;7.20;;
4359;SDS011;2193;47.980;7.660;2023-05-07T05:18:57;13.30;;;6.80;;
4359;SDS011;2193;47.980;7.660;2023-05-07T05:21:23;10.13;;;6.50;;
4359;SDS011;2193;47.980;7.660;2023-05-07T05:23:48;8.20;;;5.43;;
4359;SDS011;2193;47.980;7.660;2023-05-07T05:26:13;6.20;;;5.20;;
4359;SDS011;2193;47.980;7.660;2023-05-07T05:28:38;8.97;;;5.63;;
4359;SDS011;2193;47.980;7.660;2023-05-07T05:31:04;8.13;;;6.00;;
4359;SDS011;2193;47.980;7.660;2023-05-07T05:33:29;9.23;;;7.20;;
4359;SDS011;2193;47.980;7.660;2023-05-07T05:35:55;9.30;;;7.50;;
4359;SDS011;2193;47.980;7.660;2023-05-07T05:38:20;12.73;;;7.87;;
4359;SDS011;2193;47.980;7.660;2023-05-07T05:40:46;11.50;;;7.73;;
4359;SDS011;2193;47.980;7.660;2023-05-07T05:43:11;10.27;;;7.77;;
4359;SDS011;2193;47.980;7.660;2023-05-07T05:45:36;11.00;;;8.20;;
4359;SDS011;2193;47.980;7.660;2023-05-07T05:48:01;8.00;;;7.20;;
4359;SDS011;2193;47.980;7.660;2023-05-07T05:50:26;15.80;;;8.40;;
4359;SDS011;2193;47.980;7.660;2023-05-07T05:52:52;10.20;;;8.27;;
4359;SDS011;2193;47.980;7.660;2023-05-07T05:55:17;12.20;;;8.53;;
4359;SDS011;2193;47.980;7.660;2023-05-07T05:57:42;9.10;;;7.97;;
4359;SDS011;2193;47.980;7.660;2023-05-07T06:00:07;11.03;;;8.50;;
4359;SDS011;2193;47.980;7.660;2023-05-07T06:02:33;14.97;;;7.83;;
4359;SDS011;2193;47.980;7.660;2023-05-07T06:04:58;8.73;;;7.83;;
4359;SDS011;2193;47.980;7.660;2023-05-07T06:07:23;11.33;;;9.20;;
4359;SDS011;2193;47.980;7.660;2023-05-07T06:09:48;11.00;;;9.10;;
4359;SDS011;2193;47.980;7.660;2023-05-07T06:12:14;17.63;;;8.87;;
4359;SDS011;2193;47.980;7.660;2023-05-07T06:14:39;10.30;;;8.93;;
4359;SDS011;2193;47.980;7.660;2023-05-07T06:17:05;20.00;;;9.03;;
4359;SDS011;2193;47.980;7.660;2023-05-07T06:19:30;12.40;;;9.80;;
4359;SDS011;2193;47.980;7.660;2023-05-07T06:21:56;13.50;;;9.73;;
4359;SDS011;2193;47.980;7.660;2023-05-07T06:24:21;19.40;;;10.40;;
4359;SDS011;2193;47.980;7.660;2023-05-07T06:26:46;18.83;;;10.27;;
4359;SDS011;2193;47.980;7.660;2023-05-07T06:29:12;16.43;;;10.80;;
4359;SDS011;2193;47.980;7.660;2023-05-07T06:31:37;15.87;;;11.17;;
4359;SDS011;2193;47.980;7.660;2023-05-07T06:34:02;17.10;;;9.50;;
4359;SDS011;2193;47.980;7.660;2023-05-07T06:36:28;14.13;;;9.23;;
4359;SDS011;2193;47.980;7.660;2023-05-07T06:38:53;10.93;;;9.27;;
4359;SDS011;2193;47.980;7.660;2023-05-07T06:41:18;11.47;;;8.97;;
4359;SDS011;2193;47.980;7.660;2023-05-07T06:43:43;12.03;;;9.33;;
4359;SDS011;2193;47.980;7.660;2023-05-07T06:46:09;11.83;;;9.27;;
4359;SDS011;2193;47.980;7.660;2023-05-07T06:48:34;13.07;;;9.80;;
4359;SDS011;2193;47.980;7.660;2023-05-07T06:50:59;12.50;;;9.10;;
4359;SDS011;2193;47.980;7.660;2023-05-07T06:53:24;12.50;;;9.03;;
4359;SDS011;2193;47.980;7.660;2023-05-07T06:55:50;11.00;;;8.63;;
4359;SDS011;2193;47.980;7.660;2023-05-07T06:58:17;12.90;;;8.60;;
4359;SDS011;2193;47.980;7.660;2023-05-07T07:00:42;12.77;;;8.73;;
4359;SDS011;2193;47.980;7.660;2023-05-07T07:03:07;9.97;;;8.90;;
4359;SDS011;2193;47.980;7.660;2023-05-07T07:05:32;10.37;;;8.63;;
4359;SDS011;2193;47.980;7.660;2023-05-07T07:07:57;16.23;;;7.67;;
4359;SDS011;2193;47.980;7.660;2023-05-07T07:10:23;10.73;;;8.10;;
4359;SDS011;2193;47.980;7.660;2023-05-07T07:12:48;13.90;;;7.67;;
4359;SDS011;2193;47.980;7.660;2023-05-07T07:15:14;24.13;;;8.13;;
4359;SDS011;2193;47.980;7.660;2023-05-07T07:17:39;9.63;;;7.40;;
4359;SDS011;2193;47.980;7.660;2023-05-07T07:20:05;10.97;;;7.40;;
4359;SDS011;2193;47.980;7.660;2023-05-07T07:22:30;10.30;;;7.70;;
4359;SDS011;2193;47.980;7.660;2023-05-07T07:24:55;11.93;;;8.20;;
4359;SDS011;2193;47.980;7.660;2023-05-07T07:27:21;8.97;;;6.97;;
4359;SDS011;2193;47.980;7.660;2023-05-07T07:29:46;9.97;;;8.47;;
4359;SDS011;2193;47.980;7.660;2023-05-07T07:32:11;9.43;;;7.70;;
4359;SDS011;2193;47.980;7.660;2023-05-07T07:34:36;9.43;;;8.37;;
4359;SDS011;2193;47.980;7.660;2023-05-07T07:37:01;14.87;;;7.43;;
4359;SDS011;2193;47.980;7.660;2023-05-07T07:39:30;10.33;;;8.27;;
4359;SDS011;2193;47.980;7.660;2023-05-07T07:41:55;11.70;;;7.03;;
4359;SDS011;2193;47.980;7.660;2023-05-07T07:44:21;13.70;;;6.93;;
4359;SDS011;2193;47.980;7.660;2023-05-07T07:46:46;11.43;;;8.80;;
4359;SDS011;2193;47.980;7.660;2023-05-07T07:49:11;14.83;;;9.23;;
4359;SDS011;2193;47.980;7.660;2023-05-07T07:51:36;10.20;;;8.30;;
4359;SDS011;2193;47.980;7.660;2023-05-07T07:54:01;9.53;;;8.50;;
4359;SDS011;2193;47.980;7.660;2023-05-07T07:56:27;12.03;;;8.30;;
4359;SDS011;2193;47.980;7.660;2023-05-07T07:58:52;14.20;;;9.60;;
4359;SDS011;2193;47.980;7.660;2023-05-07T08:01:18;13.63;;;9.07;;
4359;SDS011;2193;47.980;7.660;2023-05-07T08:03:43;14.93;;;9.50;;
4359;SDS011;2193;47.980;7.660;2023-05-07T08:06:08;13.83;;;8.80;;
4359;SDS011;2193;47.980;7.660;2023-05-07T08:08:33;11.63;;;9.13;;
4359;SDS011;2193;47.980;7.660;2023-05-07T08:10:59;12.87;;;9.57;;
4359;SDS011;2193;47.980;7.660;2023-05-07T08:13:24;9.37;;;7.53;;
4359;SDS011;2193;47.980;7.660;2023-05-07T08:15:49;9.10;;;7.60;;
4359;SDS011;2193;47.980;7.660;2023-05-07T08:18:15;12.10;;;8.30;;
4359;SDS011;2193;47.980;7.660;2023-05-07T08:20:40;8.17;;;7.00;;
4359;SDS011;2193;47.980;7.660;2023-05-07T08:23:06;8.90;;;7.90;;
4359;SDS011;2193;47.980;7.660;2023-05-07T08:25:32;12.20;;;7.50;;
4359;SDS011;2193;47.980;7.660;2023-05-07T08:27:58;8.87;;;7.10;;
4359;SDS011;2193;47.980;7.660;2023-05-07T08:30:23;11.13;;;7.87;;
4359;SDS011;2193;47.980;7.660;2023-05-07T08:32:48;9.10;;;7.90;;
4359;SDS011;2193;47.980;7.660;2023-05-07T08:35:13;9.43;;;7.50;;
4359;SDS011;2193;47.980;7.660;2023-05-07T08:37:38;12.07;;;8.40;;
4359;SDS011;2193;47.980;7.660;2023-05-07T08:40:04;10.93;;;9.10;;
4359;SDS011;2193;47.980;7.660;2023-05-07T08:42:29;9.67;;;7.30;;
4359;SDS011;2193;47.980;7.660;2023-05-07T08:44:56;10.90;;;7.70;;
4359;SDS011;2193;47.980;7.660;2023-05-07T08:47:22;8.30;;;7.37;;
4359;SDS011;2193;47.980;7.660;2023-05-07T08:49:47;10.80;;;7.87;;
4359;SDS011;2193;47.980;7.660;2023-05-07T08:52:13;9.00;;;6.47;;
4359;SDS011;2193;47.980;7.660;2023-05-07T08:54:38;8.50;;;6.30;;
4359;SDS011;2193;47.980;7.660;2023-05-07T08:57:04;8.97;;;5.63;;
4359;SDS011;2193;47.980;7.660;2023-05-07T08:59:29;7.90;;;6.37;;
4359;SDS011;2193;47.980;7.660;2023-05-07T09:01:55;9.73;;;6.07;;
4359;SDS011;2193;47.980;7.660;2023-05-07T09:04:20;8.43;;;6.10;;
4359;SDS011;2193;47.980;7.660;2023-05-07T09:06:45;13.73;;;6.70;;
4359;SDS011;2193;47.980;7.660;2023-05-07T09:09:14;8.47;;;7.07;;
4359;SDS011;2193;47.980;7.660;2023-05-07T09:11:42;9.57;;;7.20;;
4359;SDS011;2193;47.980;7.660;2023-05-07T09:14:07;6.97;;;5.20;;
4359;SDS011;2193;47.980;7.660;2023-05-07T09:16:32;8.83;;;5.70;;
4359;SDS011;2193;47.980;7.660;2023-05-07T09:18:58;7.67;;;5.80;;
4359;SDS011;2193;47.980;7.660;2023-05-07T09:21:24;6.43;;;5.20;;
4359;SDS011;2193;47.980;7.660;2023-05-07T09:23:52;6.73;;;5.10;;
4359;SDS011;2193;47.980;7.660;2023-05-07T09:26:18;10.60;;;6.20;;
4359;SDS011;2193;47.980;7.660;2023-05-07T09:28:43;8.50;;;5.80;;
4359;SDS011;2193;47.980;7.660;2023-05-07T09:31:09;7.50;;;5.97;;
4359;SDS011;2193;47.980;7.660;2023-05-07T09:33:34;7.20;;;5.53;;
4359;SDS011;2193;47.980;7.660;2023-05-07T09:36:06;6.93;;;5.40;;
4359;SDS011;2193;47.980;7.660;2023-05-07T09:38:32;6.10;;;4.90;;
4359;SDS011;2193;47.980;7.660;2023-05-07T09:41:31;4.90;;;4.40;;
4359;SDS011;2193;47.980;7.660;2023-05-07T09:43:52;5.10;;;4.20;;
4359;SDS011;2193;47.980;7.660;2023-05-07T09:46:18;5.07;;;4.57;;
4359;SDS011;2193;47.980;7.660;2023-05-07T09:48:49;5.33;;;4.47;;
4359;SDS011;2193;47.980;7.660;2023-05-07T09:53:43;5.73;;;4.67;;
4359;SDS011;2193;47.980;7.660;2023-05-07T09:56:11;7.03;;;5.00;;
4359;SDS011;2193;47.980;7.660;2023-05-07T09:58:37;9.80;;;5.40;;
4359;SDS011;2193;47.980;7.660;2023-05-07T10:01:03;7.07;;;4.80;;
4359;SDS011;2193;47.980;7.660;2023-05-07T10:03:28;4.90;;;4.40;;
4359;SDS011;2193;47.980;7.660;2023-05-07T10:05:55;7.03;;;5.27;;
4359;SDS011;2193;47.980;7.660;2023-05-07T10:08:20;8.70;;;5.20;;
4359;SDS011;2193;47.980;7.660;2023-05-07T10:10:45;5.30;;;4.80;;
4359;SDS011;2193;47.980;7.660;2023-05-07T10:13:11;7.30;;;5.40;;
4359;SDS011;2193;47.980;7.660;2023-05-07T10:15:36;6.03;;;5.20;;
4359;SDS011;2193;47.980;7.660;2023-05-07T10:18:03;5.90;;;4.67;;
4359;SDS011;2193;47.980;7.660;2023-05-07T10:20:28;7.60;;;5.23;;
4359;SDS011;2193;47.980;7.660;2023-05-07T10:22:53;9.57;;;5.53;;
4359;SDS011;2193;47.980;7.660;2023-05-07T10:25:25;9.03;;;6.27;;
4359;SDS011;2193;47.980;7.660;2023-05-07T10:27:51;6.80;;;6.10;;
4359;SDS011;2193;47.980;7.660;2023-05-07T10:33:01;12.20;;;7.10;;
4359;SDS011;2193;47.980;7.660;2023-05-07T10:35:31;10.67;;;7.43;;
4359;SDS011;2193;47.980;7.660;2023-05-07T10:37:57;10.80;;;7.33;;
4359;SDS011;2193;47.980;7.660;2023-05-07T10:40:23;14.30;;;7.60;;
4359;SDS011;2193;47.980;7.660;2023-05-07T10:45:20;12.20;;;8.77;;
4359;SDS011;2193;47.980;7.660;2023-05-07T10:48:05;9.00;;;6.83;;
4359;SDS011;2193;47.980;7.660;2023-05-07T10:50:30;16.77;;;9.17;;
4359;SDS011;2193;47.980;7.660;2023-05-07T10:55:39;9.37;;;6.77;;
4359;SDS011;2193;47.980;7.660;2023-05-07T11:00:50;9.83;;;6.90;;
4359;SDS011;2193;47.980;7.660;2023-05-07T11:03:16;8.07;;;6.50;;
4359;SDS011;2193;47.980;7.660;2023-05-07T11:05:41;8.60;;;6.50;;
4359;SDS011;2193;47.980;7.660;2023-05-07T11:08:07;17.27;;;6.70;;
4359;SDS011;2193;47.980;7.660;2023-05-07T11:10:48;7.77;;;6.57;;
4359;SDS011;2193;47.980;7.660;2023-05-07T11:13:14;8.40;;;6.30;;
4359;SDS011;2193;47.980;7.660;2023-05-07T11:15:40;7.47;;;6.33;;
4359;SDS011;2193;47.980;7.660;2023-05-07T11:18:06;7.60;;;6.13;;
4359;SDS011;2193;47.980;7.660;2023-05-07T11:25:58;6.97;;;6.27;;
4359;SDS011;2193;47.980;7.660;2023-05-07T11:28:24;8.13;;;6.70;;
4359;SDS011;2193;47.980;7.660;2023-05-07T11:30:49;8.67;;;7.00;;
4359;SDS011;2193;47.980;7.660;2023-05-07T11:33:16;9.50;;;6.67;;
4359;SDS011;2193;47.980;7.660;2023-05-07T11:35:42;10.30;;;6.43;;
4359;SDS011;2193;47.980;7.660;2023-05-07T11:38:07;8.27;;;6.20;;
4359;SDS011;2193;47.980;7.660;2023-05-07T11:40:32;8.73;;;6.80;;
4359;SDS011;2193;47.980;7.660;2023-05-07T11:42:57;8.87;;;6.50;;
4359;SDS011;2193;47.980;7.660;2023-05-07T11:45:23;8.37;;;6.90;;
4359;SDS011;2193;47.980;7.660;2023-05-07T11:47:51;11.80;;;7.17;;
4359;SDS011;2193;47.980;7.660;2023-05-07T11:50:17;8.03;;;6.77;;
4359;SDS011;2193;47.980;7.660;2023-05-07T11:52:49;7.87;;;6.27;;
4359;SDS011;2193;47.980;7.660;2023-05-07T11:55:15;8.97;;;5.63;;
4359;SDS011;2193;47.980;7.660;2023-05-07T11:57:43;8.03;;;6.33;;
4359;SDS011;2193;47.980;7.660;2023-05-07T12:00:08;8.40;;;6.40;;
4359;SDS011;2193;47.980;7.660;2023-05-07T12:02:34;6.80;;;5.80;;
4359;SDS011;2193;47.980;7.660;2023-05-07T12:05:00;8.83;;;6.60;;
4359;SDS011;2193;47.980;7.660;2023-05-07T12:07:25;7.37;;;5.70;;
4359;SDS011;2193;47.980;7.660;2023-05-07T12:09:50;9.60;;;5.93;;
4359;SDS011;2193;47.980;7.660;2023-05-07T12:12:15;8.13;;;5.67;;
4359;SDS011;2193;47.980;7.660;2023-05-07T12:14:43;7.20;;;5.53;;
4359;SDS011;2193;47.980;7.660;2023-05-07T12:17:08;6.10;;;5.50;;
4359;SDS011;2193;47.980;7.660;2023-05-07T12:19:34;8.43;;;5.80;;
4359;SDS011;2193;47.980;7.660;2023-05-07T12:22:00;7.97;;;6.00;;
4359;SDS011;2193;47.980;7.660;2023-05-07T12:24:26;8.13;;;5.33;;
4359;SDS011;2193;47.980;7.660;2023-05-07T12:26:51;7.33;;;6.07;;
4359;SDS011;2193;47.980;7.660;2023-05-07T12:29:16;6.70;;;6.00;;
4359;SDS011;2193;47.980;7.660;2023-05-07T12:31:42;9.53;;;5.80;;
4359;SDS011;2193;47.980;7.660;2023-05-07T12:34:07;7.40;;;5.60;;
4359;SDS011;2193;47.980;7.660;2023-05-07T12:36:36;6.17;;;5.57;;
4359;SDS011;2193;47.980;7.660;2023-05-07T12:39:01;6.60;;;5.60;;
4359;SDS011;2193;47.980;7.660;2023-05-07T12:41:27;6.47;;;5.13;;
4359;SDS011;2193;47.980;7.660;2023-05-07T12:43:55;7.40;;;5.70;;
4359;SDS011;2193;47.980;7.660;2023-05-07T12:46:21;8.63;;;6.63;;
4359;SDS011;2193;47.980;7.660;2023-05-07T12:48:48;6.53;;;5.87;;
4359;SDS011;2193;47.980;7.660;2023-05-07T12:51:13;7.93;;;6.70;;
4359;SDS011;2193;47.980;7.660;2023-05-07T12:53:40;7.23;;;6.07;;
4359;SDS011;2193;47.980;7.660;2023-05-07T12:56:07;7.53;;;5.83;;
4359;SDS011;2193;47.980;7.660;2023-05-07T12:58:33;9.27;;;6.40;;
4359;SDS011;2193;47.980;7.660;2023-05-07T13:01:00;10.83;;;6.23;;
4359;SDS011;2193;47.980;7.660;2023-05-07T13:03:29;7.27;;;6.00;;
4359;SDS011;2193;47.980;7.660;2023-05-07T13:05:56;7.97;;;6.63;;
4359;SDS011;2193;47.980;7.660;2023-05-07T13:08:25;7.60;;;5.70;;
4359;SDS011;2193;47.980;7.660;2023-05-07T13:10:51;12.80;;;5.23;;
4359;SDS011;2193;47.980;7.660;2023-05-07T13:13:16;7.00;;;5.53;;
4359;SDS011;2193;47.980;7.660;2023-05-07T13:15:41;8.53;;;5.67;;
4359;SDS011;2193;47.980;7.660;2023-05-07T13:18:06;7.30;;;5.17;;
4359;SDS011;2193;47.980;7.660;2023-05-07T13:20:32;6.70;;;5.50;;
4359;SDS011;2193;47.980;7.660;2023-05-07T13:22:57;7.57;;;5.27;;
4359;SDS011;2193;47.980;7.660;2023-05-07T13:25:22;6.37;;;5.77;;
4359;SDS011;2193;47.980;7.660;2023-05-07T13:27:47;6.13;;;5.53;;
4359;SDS011;2193;47.980;7.660;2023-05-07T13:30:12;6.67;;;5.13;;
4359;SDS011;2193;47.980;7.660;2023-05-07T13:32:38;5.80;;;4.97;;
4359;SDS011;2193;47.980;7.660;2023-05-07T13:35:03;8.57;;;5.67;;
4359;SDS011;2193;47.980;7.660;2023-05-07T13:37:28;10.60;;;4.97;;
4359;SDS011;2193;47.980;7.660;2023-05-07T13:39:53;6.47;;;5.47;;
4359;SDS011;2193;47.980;7.660;2023-05-07T13:42:19;7.80;;;5.40;;
4359;SDS011;2193;47.980;7.660;2023-05-07T13:44:44;6.67;;;5.60;;
4359;SDS011;2193;47.980;7.660;2023-05-07T13:47:10;6.63;;;5.30;;
4359;SDS011;2193;47.980;7.660;2023-05-07T13:49:35;5.50;;;5.00;;
4359;SDS011;2193;47.980;7.660;2023-05-07T13:52:00;5.87;;;5.37;;
4359;SDS011;2193;47.980;7.660;2023-05-07T13:54:25;5.80;;;4.67;;
4359;SDS011;2193;47.980;7.660;2023-05-07T13:56:51;5.80;;;5.20;;
4359;SDS011;2193;47.980;7.660;2023-05-07T13:59:16;5.90;;;5.27;;
4359;SDS011;2193;47.980;7.660;2023-05-07T14:01:41;5.47;;;4.40;;
4359;SDS011;2193;47.980;7.660;2023-05-07T14:04:06;6.70;;;4.83;;
4359;SDS011;2193;47.980;7.660;2023-05-07T14:06:32;4.60;;;4.20;;
4359;SDS011;2193;47.980;7.660;2023-05-07T14:08:57;5.37;;;4.07;;
4359;SDS011;2193;47.980;7.660;2023-05-07T14:11:23;5.27;;;4.50;;
4359;SDS011;2193;47.980;7.660;2023-05-07T14:13:48;3.80;;;3.50;;
4359;SDS011;2193;47.980;7.660;2023-05-07T14:16:13;7.30;;;4.07;;
4359;SDS011;2193;47.980;7.660;2023-05-07T14:18:38;3.30;;;3.00;;
4359;SDS011;2193;47.980;7.660;2023-05-07T14:21:04;4.40;;;2.10;;
4359;SDS011;2193;47.980;7.660;2023-05-07T14:23:31;2.33;;;2.10;;
4359;SDS011;2193;47.980;7.660;2023-05-07T14:25:56;2.60;;;1.97;;
4359;SDS011;2193;47.980;7.660;2023-05-07T14:28:22;2.80;;;2.10;;
4359;SDS011;2193;47.980;7.660;2023-05-07T14:30:47;2.70;;;2.50;;
4359;SDS011;2193;47.980;7.660;2023-05-07T14:33:13;2.63;;;2.40;;
4359;SDS011;2193;47.980;7.660;2023-05-07T14:35:38;11.23;;;2.77;;
4359;SDS011;2193;47.980;7.660;2023-05-07T14:38:03;2.63;;;2.43;;
4359;SDS011;2193;47.980;7.660;2023-05-07T14:40:28;6.23;;;2.47;;
4359;SDS011;2193;47.980;7.660;2023-05-07T14:42:53;2.70;;;2.20;;
4359;SDS011;2193;47.980;7.660;2023-05-07T14:45:20;2.40;;;2.10;;
4359;SDS011;2193;47.980;7.660;2023-05-07T14:47:45;2.30;;;2.10;;
4359;SDS011;2193;47.980;7.660;2023-05-07T14:50:11;4.03;;;2.53;;
4359;SDS011;2193;47.980;7.660;2023-05-07T14:52:36;4.20;;;2.83;;
4359;SDS011;2193;47.980;7.660;2023-05-07T14:55:01;3.20;;;2.70;;
4359;SDS011;2193;47.980;7.660;2023-05-07T14:57:26;2.60;;;2.40;;
4359;SDS011;2193;47.980;7.660;2023-05-07T14:59:51;4.07;;;2.70;;
4359;SDS011;2193;47.980;7.660;2023-05-07T15:02:17;4.43;;;2.30;;
4359;SDS011;2193;47.980;7.660;2023-05-07T15:04:43;2.53;;;2.20;;
4359;SDS011;2193;47.980;7.660;2023-05-07T15:07:13;2.77;;;2.10;;
4359;SDS011;2193;47.980;7.660;2023-05-07T15:09:40;3.20;;;2.17;;
4359;SDS011;2193;47.980;7.660;2023-05-07T15:12:05;3.13;;;2.10;;
4359;SDS011;2193;47.980;7.660;2023-05-07T15:14:31;2.10;;;1.90;;
4359;SDS011;2193;47.980;7.660;2023-05-07T15:16:56;1.90;;;1.70;;
4359;SDS011;2193;47.980;7.660;2023-05-07T15:19:21;2.20;;;1.30;;
4359;SDS011;2193;47.980;7.660;2023-05-07T15:21:49;1.60;;;1.40;;